Time;durP1;ratioP1;P1;durP2;ratioP2;P2;SDS_P1;SDS_P2;PMS_P1;PMS_P2;Temp;Humidity;BMP_temperature;BMP_pressure;BME280_temperature;BME280_humidity;BME280_pressure;Samples;Min_cycle;Max_cycle;Signal;HPM_P1;HPM_P2
2022/02/06 00:01:12;;;;;;;16.10;5.40;;;;;;;5.10;78.14;99915.31;5036108;28;20518;-63
2022/02/06 00:03:58;;;;;;;9.90;4.00;;;;;;;5.11;78.16;99913.66;5036289;28;20555;-64
2022/02/06 00:06:47;;;;;;;10.93;4.47;;;;;;;5.10;78.16;99915.31;5035560;28;20056;-65
2022/02/06 00:09:33;;;;;;;12.65;4.30;;;;;;;5.13;78.48;99901.75;5036032;28;20168;-64
2022/02/06 00:12:22;;;;;;;10.73;3.88;;;;;;;5.12;78.33;99888.00;5036055;28;20091;-63
2022/02/06 00:15:07;;;;;;;9.98;5.13;;;;;;;5.12;78.31;99895.72;5021284;28;20048;-64
2022/02/06 00:17:56;;;;;;;;;;;;;;;5.12;78.26;99888.00;5021489;28;20556;-63
2022/02/06 00:20:51;;;;;;;9.75;4.18;;;;;;;5.12;78.13;99887.16;5020973;28;19920;-64
2022/02/06 00:23:36;;;;;;;9.63;3.38;;;;;;;5.13;78.35;99888.91;5035157;28;20092;-63
2022/02/06 00:26:35;;;;;;;19.40;5.75;;;;;;;5.12;78.71;99890.56;5035511;28;20164;-63
2022/02/06 00:29:38;;;;;;;9.95;4.22;;;;;;;5.12;78.41;99875.16;5021135;28;20045;-64
2022/02/06 00:32:38;;;;;;;8.77;4.70;;;;;;;5.13;78.10;99868.34;5035415;28;20392;-64
2022/02/06 00:35:54;;;;;;;8.88;4.30;;;;;;;5.14;78.78;99864.91;5020752;28;20072;-64
2022/02/06 00:41:51;;;;;;;13.98;5.10;;;;;;;5.15;77.98;99843.53;5035325;28;20562;-63
2022/02/06 00:44:35;;;;;;;7.75;4.43;;;;;;;5.15;78.52;99835.84;5020713;28;20096;-64
2022/02/06 00:47:19;;;;;;;8.50;3.90;;;;;;;5.16;78.21;99820.50;5020367;28;20051;-64
2022/02/06 00:50:06;;;;;;;8.85;4.13;;;;;;;5.15;78.05;99823.88;5020461;28;20566;-64
2022/02/06 00:53:06;;;;;;;8.70;3.97;;;;;;;5.14;78.77;99817.00;5020344;28;20096;-64
2022/02/06 00:55:50;;;;;;;13.50;3.88;;;;;;;5.16;78.75;99809.31;5035294;28;20115;-65
2022/02/06 00:58:37;;;;;;;12.15;4.97;;;;;;;5.16;78.38;99802.50;5035495;28;20122;-65
2022/02/06 01:01:22;;;;;;;9.20;3.97;;;;;;;5.16;78.23;99797.38;5034899;28;20455;-63
2022/02/06 01:04:09;;;;;;;10.55;3.67;;;;;;;5.18;78.21;99797.41;5035232;28;20053;-63
2022/02/06 01:06:53;;;;;;;10.38;3.53;;;;;;;5.18;78.78;99787.13;5035306;28;20171;-63
2022/02/06 01:09:39;;;;;;;6.55;3.90;;;;;;;5.20;78.14;99779.50;5020219;28;20056;-63
2022/02/06 01:12:29;;;;;;;7.30;4.30;;;;;;;5.18;78.36;99758.88;5019913;28;20554;-64
2022/02/06 01:15:22;;;;;;;6.50;4.07;;;;;;;5.19;78.45;99773.47;5020245;28;20056;-63
2022/02/06 01:18:17;;;;;;;8.68;4.75;;;;;;;5.19;78.39;99776.03;5019813;28;20075;-64
2022/02/06 01:21:09;;;;;;;6.88;3.70;;;;;;;5.18;78.63;99759.75;5034825;28;20044;-63
2022/02/06 01:24:07;;;;;;;7.38;4.38;;;;;;;5.22;78.72;99764.97;5019978;28;20053;-63
2022/02/06 01:27:00;;;;;;;14.43;4.28;;;;;;;5.22;78.64;99762.41;5033943;28;20117;-64
2022/02/06 01:29:56;;;;;;;12.63;4.28;;;;;;;5.24;78.03;99763.34;5034713;28;20116;-64
2022/02/06 01:39:10;;;;;;;12.52;4.07;;;;;;;5.24;78.39;99763.34;5034203;28;20099;-64
2022/02/06 01:41:59;;;;;;;8.35;3.92;;;;;;;5.24;78.06;99761.66;5019390;28;20110;-64
2022/02/06 01:45:55;;;;;;;6.25;3.85;;;;;;;5.24;78.03;99776.19;5019712;28;20091;-64
2022/02/06 02:16:15;;;;;;;8.73;4.07;;;;;;;5.29;78.80;99702.69;5034171;28;20080;-63
2022/02/06 02:19:26;;;;;;;8.55;4.10;;;;;;;5.27;78.07;99712.94;5034000;28;20188;-64
2022/02/06 02:25:43;;;;;;;9.80;4.47;;;;;;;5.28;78.15;99693.25;5033988;28;20076;-64
2022/02/06 02:44:57;;;;;;;9.45;3.92;;;;;;;5.28;78.28;99649.56;5033233;28;20040;-64
2022/02/06 02:50:00;;;;;;;13.70;4.70;;;;;;;5.30;77.99;99635.06;5033449;28;20056;-65
2022/02/06 02:52:59;;;;;;;9.65;4.40;;;;;;;5.29;79.18;99630.75;5018141;28;20413;-64
2022/02/06 03:01:27;;;;;;;10.30;4.05;;;;;;;5.33;78.81;99612.03;5033383;28;20052;-64
2022/02/06 03:04:16;;;;;;;13.27;4.28;;;;;;;5.32;79.06;99612.84;5034457;28;20049;-63
2022/02/06 03:07:00;;;;;;;11.48;4.13;;;;;;;5.32;78.99;99594.88;5022628;28;20135;-63
2022/02/06 03:09:48;;;;;;;8.82;4.63;;;;;;;5.31;78.74;99606.81;5037412;28;20056;-63
2022/02/06 03:12:40;;;;;;;8.43;4.18;;;;;;;5.33;78.63;99588.91;5022368;28;20103;-64
2022/02/06 03:15:43;;;;;;;13.95;3.25;;;;;;;5.35;78.96;99615.53;5037286;28;20171;-63
2022/02/06 03:18:34;;;;;;;10.98;4.82;;;;;;;5.33;79.12;99594.91;5037031;28;20527;-64
2022/02/06 03:21:25;;;;;;;7.88;3.90;;;;;;;5.33;78.38;99610.31;5022271;28;20045;-64
2022/02/06 03:24:21;;;;;;;9.23;4.40;;;;;;;5.36;78.82;99608.66;5022030;28;20123;-64
2022/02/06 03:27:07;;;;;;;9.80;4.07;;;;;;;5.36;78.79;99596.72;5022068;28;20092;-65
2022/02/06 03:29:51;;;;;;;11.85;4.70;;;;;;;5.35;78.83;99576.97;5037410;28;20102;-64
2022/02/06 03:32:40;;;;;;;10.23;4.40;;;;;;;5.38;78.89;99589.91;5022020;28;20044;-63
2022/02/06 03:35:27;;;;;;;12.88;4.40;;;;;;;5.38;78.89;99594.19;5022013;28;20051;-64
2022/02/06 03:38:16;;;;;;;15.98;4.63;;;;;;;5.39;78.88;99572.78;5036974;28;20099;-64
2022/02/06 03:41:08;;;;;;;12.93;4.55;;;;;;;5.38;78.46;99574.47;5036745;28;20528;-63
2022/02/06 03:44:07;;;;;;;9.45;4.13;;;;;;;5.39;78.88;99570.22;5021927;28;20056;-64
2022/02/06 03:47:06;;;;;;;12.25;4.15;;;;;;;5.37;78.74;99556.44;5021883;28;20083;-64
2022/02/06 03:49:57;;;;;;;12.25;3.92;;;;;;;5.38;78.66;99569.34;5036371;28;20091;-63
2022/02/06 03:52:47;;;;;;;10.23;3.83;;;;;;;5.39;78.83;99554.81;5021290;28;20084;-64
2022/02/06 03:55:32;;;;;;;9.95;4.25;;;;;;;5.39;78.71;99560.78;5035576;28;20519;-63
2022/02/06 03:58:22;;;;;;;14.00;4.30;;;;;;;5.40;79.38;99554.84;5021706;28;20083;-63
2022/02/06 04:01:09;;;;;;;18.52;4.88;;;;;;;5.39;79.07;99553.09;5021514;28;20068;-64
2022/02/06 04:03:55;;;;;;;8.23;3.88;;;;;;;5.38;78.91;99556.47;5021705;28;20059;-64
2022/02/06 04:06:45;;;;;;;8.15;4.10;;;;;;;5.39;79.01;99542.81;5036243;28;20056;-63
2022/02/06 04:09:48;;;;;;;11.00;4.43;;;;;;;5.39;79.08;99537.66;5036389;28;20088;-64
2022/02/06 04:12:40;;;;;;;10.80;4.10;;;;;;;5.39;79.17;99535.09;5036076;28;20099;-64
2022/02/06 04:15:27;;;;;;;11.35;3.47;;;;;;;5.39;78.98;99523.97;5020761;28;20104;-63
2022/02/06 04:18:15;;;;;;;7.05;3.63;;;;;;;5.38;78.91;99525.63;5036064;28;20099;-64
2022/02/06 04:20:59;;;;;;;7.20;4.85;;;;;;;5.41;78.83;99510.31;5035266;28;20047;-63
2022/02/06 04:23:46;;;;;;;13.32;3.97;;;;;;;5.39;79.23;99504.25;5036242;28;20048;-63
2022/02/06 04:26:30;;;;;;;9.88;4.15;;;;;;;5.40;78.89;99500.00;5035462;28;20044;-64
2022/02/06 04:29:16;;;;;;;7.68;4.28;;;;;;;5.38;79.14;99502.50;5036017;28;20100;-63
2022/02/06 04:32:07;;;;;;;11.55;4.18;;;;;;;5.39;79.27;99508.53;5035708;28;20087;-64
2022/02/06 04:34:53;;;;;;;10.27;4.93;;;;;;;5.37;79.26;99492.19;5021246;28;20063;-64
2022/02/06 04:37:50;;;;;;;9.20;5.03;;;;;;;5.39;79.64;99475.13;5035651;28;20048;-64
2022/02/06 04:47:16;;;;;;;13.15;3.65;;;;;;;5.38;79.18;99460.53;5035195;28;20048;-64
2022/02/06 04:55:55;;;;;;;9.25;4.68;;;;;;;5.37;79.47;99444.25;5035340;28;20045;-64
2022/02/06 05:22:47;;;;;;;15.40;5.35;;;;;;;5.41;79.89;99399.81;5034999;28;20048;-64
2022/02/06 05:28:42;;;;;;;7.35;3.80;;;;;;;5.39;79.53;99393.75;5034727;28;20056;-63
2022/02/06 05:31:39;;;;;;;9.45;3.65;;;;;;;5.41;79.93;99386.09;5034390;28;20044;-63
2022/02/06 05:34:23;;;;;;;10.50;4.65;;;;;;;5.40;79.39;99380.06;5034854;28;20404;-63
2022/02/06 05:37:09;;;;;;;9.60;4.32;;;;;;;5.42;79.96;99385.28;5034764;28;20048;-64
2022/02/06 05:39:57;;;;;;;9.73;5.00;;;;;;;5.42;79.80;99368.13;5019359;28;20056;-65
2022/02/06 05:42:43;;;;;;;13.00;5.00;;;;;;;5.43;79.93;99362.16;5034517;28;20060;-64
2022/02/06 05:45:27;;;;;;;12.55;4.72;;;;;;;5.44;79.53;99351.06;5019540;28;20523;-63
2022/02/06 05:48:10;;;;;;;11.55;3.85;;;;;;;5.43;79.81;99359.59;5034457;28;20103;-64
2022/02/06 05:51:00;;;;;;;10.02;4.55;;;;;;;5.42;80.00;99357.00;5034569;28;20048;-64
2022/02/06 05:53:44;;;;;;;7.20;4.18;;;;;;;5.42;80.30;99334.72;5019227;28;20048;-63
2022/02/06 05:56:33;;;;;;;6.78;3.83;;;;;;;5.41;80.09;99350.97;5034010;28;20041;-64
2022/02/06 05:59:20;;;;;;;13.27;5.40;;;;;;;5.44;79.87;99337.34;5019187;28;20451;-63
2022/02/06 06:02:07;;;;;;;11.52;4.90;;;;;;;5.44;80.28;99329.66;5034323;28;20099;-64
2022/02/06 06:04:57;;;;;;;12.32;4.53;;;;;;;5.45;79.92;99328.81;5018884;28;20100;-64
2022/02/06 06:07:42;;;;;;;10.30;4.47;;;;;;;5.45;80.19;99326.25;5019049;28;20052;-63
2022/02/06 06:10:26;;;;;;;7.78;3.40;;;;;;;5.43;79.85;99310.75;5033866;28;20528;-63
2022/02/06 06:13:13;;;;;;;;;;;;;;;5.42;80.38;99321.88;5034336;28;20080;-64
2022/02/06 06:16:00;;;;;;;8.65;4.05;;;;;;;5.41;80.09;99307.28;5034051;28;20406;-64
2022/02/06 06:18:44;;;;;;;7.82;4.25;;;;;;;5.44;80.36;99307.38;5019251;28;20129;-64
2022/02/06 06:21:33;;;;;;;10.65;4.07;;;;;;;5.45;80.50;99315.97;5019326;28;20583;-64
2022/02/06 06:24:23;;;;;;;11.02;4.40;;;;;;;5.43;80.46;99315.91;5034025;28;20404;-63
2022/02/06 06:27:10;;;;;;;9.45;3.70;;;;;;;5.44;80.55;99309.94;5019061;28;20528;-64
2022/02/06 06:29:54;;;;;;;10.88;4.90;;;;;;;5.44;80.65;99302.22;5033779;28;20570;-64
2022/02/06 06:32:40;;;;;;;8.40;4.35;;;;;;;5.45;80.83;99308.25;5033484;28;20515;-64
2022/02/06 06:35:24;;;;;;;8.15;3.47;;;;;;;5.45;80.52;99308.25;5018792;28;20132;-64
2022/02/06 06:38:12;;;;;;;7.70;3.70;;;;;;;5.44;80.83;99297.09;5034105;28;20048;-64
2022/02/06 06:40:59;;;;;;;7.40;4.20;;;;;;;5.44;80.37;99299.66;5018598;28;20052;-63
2022/02/06 06:43:43;;;;;;;6.90;4.20;;;;;;;5.46;80.82;99291.97;5018720;28;20092;-64
2022/02/06 06:46:33;;;;;;;6.93;3.40;;;;;;;5.45;80.44;99293.69;5033469;28;20052;-63
2022/02/06 06:49:25;;;;;;;8.40;3.42;;;;;;;5.46;80.73;99287.72;5033203;28;20044;-63
2022/02/06 06:52:12;;;;;;;8.68;2.70;;;;;;;5.46;80.43;99285.16;5018625;28;20052;-64
2022/02/06 06:55:04;;;;;;;8.05;3.50;;;;;;;5.46;80.74;99292.84;5018281;28;20072;-64
2022/02/06 06:57:57;;;;;;;4.10;3.28;;;;;;;5.46;80.38;99274.88;5033374;28;20048;-63
2022/02/06 07:03:32;;;;;;;5.38;2.92;;;;;;;5.46;80.88;99271.41;5033963;28;20143;-64
2022/02/06 07:06:21;;;;;;;5.90;3.38;;;;;;;5.46;80.82;99256.88;5033375;28;20131;-64
2022/02/06 07:09:08;;;;;;;6.38;3.20;;;;;;;5.46;80.54;99259.44;5018526;28;20056;-64
2022/02/06 07:11:52;;;;;;;3.97;3.10;;;;;;;5.46;80.42;99277.44;5033056;28;20041;-64
2022/02/06 07:14:36;;;;;;;7.03;3.28;;;;;;;5.46;80.71;99263.69;5033562;28;20057;-64
2022/02/06 07:17:25;;;;;;;6.63;3.30;;;;;;;5.48;80.74;99251.75;5033182;28;20048;-63
2022/02/06 07:20:10;;;;;;;6.38;3.45;;;;;;;5.47;80.40;99245.75;5018436;28;20507;-63
2022/02/06 07:22:54;;;;;;;;;;;;;;;5.47;80.57;99248.34;5018757;28;20056;-63
2022/02/06 07:25:45;;;;;;;3.80;2.75;;;;;;;5.45;80.96;99239.72;5033422;28;20014;-63
2022/02/06 07:28:30;;;;;;;5.40;3.10;;;;;;;5.46;81.30;99250.84;5032951;28;20137;-64
2022/02/06 07:31:17;;;;;;;5.57;3.38;;;;;;;5.46;80.57;99220.88;5033107;28;20116;-64
2022/02/06 07:34:00;;;;;;;4.57;3.28;;;;;;;5.47;80.79;99220.06;5018323;28;20044;-63
2022/02/06 07:36:45;;;;;;;5.45;2.90;;;;;;;5.47;81.58;99214.91;5033099;28;20099;-63
2022/02/06 07:39:29;;;;;;;;;;;;;;;5.46;80.91;99207.16;5018636;28;20070;-63
2022/02/06 07:42:13;;;;;;;4.28;3.08;;;;;;;5.47;81.11;99202.06;5032873;28;19982;-64
2022/02/06 07:45:02;;;;;;;3.72;2.92;;;;;;;5.48;80.79;99203.81;5018533;28;20060;-63
2022/02/06 07:47:47;;;;;;;15.27;3.58;;;;;;;5.49;80.83;99208.13;5018057;28;20040;-64
2022/02/06 07:50:36;;;;;;;5.43;2.42;;;;;;;5.51;81.18;99191.88;5033148;28;20072;-65
2022/02/06 07:53:23;;;;;;;4.55;2.40;;;;;;;5.52;81.19;99193.59;5021696;28;20079;-64
2022/02/06 07:56:07;;;;;;;7.07;3.28;;;;;;;5.54;81.01;99181.63;5021864;28;20047;-63
2022/02/06 07:58:51;;;;;;;4.95;3.10;;;;;;;5.53;81.06;99174.78;5036434;28;20088;-63
2022/02/06 08:01:35;;;;;;;4.35;3.38;;;;;;;5.54;81.24;99173.91;5036055;28;20063;-64
2022/02/06 08:04:18;;;;;;;4.50;2.92;;;;;;;5.54;81.07;99161.94;5036452;28;20403;-63
2022/02/06 08:07:04;;;;;;;4.55;3.03;;;;;;;5.54;81.48;99150.78;5036336;28;20132;-64
2022/02/06 08:09:57;;;;;;;3.85;2.35;;;;;;;5.55;81.28;99139.66;5021469;28;20053;-63
2022/02/06 08:12:51;;;;;;;2.55;2.35;;;;;;;5.54;81.20;99132.78;5021105;28;20044;-64
2022/02/06 08:15:39;;;;;;;3.38;2.80;;;;;;;5.57;80.86;99130.28;5021445;28;20049;-64
2022/02/06 08:18:25;;;;;;;6.00;2.95;;;;;;;5.56;81.74;99120.84;5021537;28;20079;-63
2022/02/06 08:21:10;;;;;;;5.93;2.55;;;;;;;5.56;81.20;99108.88;5021473;28;20052;-63
2022/02/06 08:23:57;;;;;;;5.20;3.42;;;;;;;5.55;81.33;99121.69;5021013;28;20048;-65
2022/02/06 08:26:41;;;;;;;4.65;3.40;;;;;;;5.57;81.02;99096.88;5036079;28;20462;-63
2022/02/06 08:29:27;;;;;;;2.97;2.75;;;;;;;5.57;81.69;99091.72;5036165;28;20087;-64
2022/02/06 08:32:13;;;;;;;4.95;3.00;;;;;;;5.57;81.51;99092.63;5034873;28;20052;-64
2022/02/06 08:34:57;;;;;;;4.57;3.10;;;;;;;5.56;82.00;99095.13;5020949;28;20087;-63
2022/02/06 08:37:41;;;;;;;4.40;3.03;;;;;;;5.57;81.55;99076.31;5035846;28;20595;-64
2022/02/06 08:40:28;;;;;;;4.88;2.97;;;;;;;5.57;81.56;99081.44;5035982;28;20206;-64
2022/02/06 08:43:12;;;;;;;3.40;2.60;;;;;;;5.57;81.08;99072.06;5035718;28;20052;-63
2022/02/06 08:45:55;;;;;;;4.30;2.40;;;;;;;5.59;81.73;99072.97;5035600;28;20107;-64
2022/02/06 08:48:39;;;;;;;2.67;2.30;;;;;;;5.61;81.40;99070.41;5035535;28;20056;-64
2022/02/06 08:51:23;;;;;;;3.92;2.50;;;;;;;5.61;81.99;99060.13;5035638;28;20140;-63
2022/02/06 08:54:09;;;;;;;6.05;3.05;;;;;;;5.60;81.57;99054.13;5020193;28;20076;-64
2022/02/06 08:56:59;;;;;;;2.67;2.47;;;;;;;5.62;81.10;99049.84;5035376;28;20508;-64
2022/02/06 08:59:43;;;;;;;4.13;3.25;;;;;;;5.62;81.73;99046.44;5020489;28;20051;-63
2022/02/06 09:02:27;;;;;;;3.58;2.83;;;;;;;5.64;81.49;99048.19;5034732;28;20057;-63
2022/02/06 09:05:15;;;;;;;4.65;2.70;;;;;;;5.63;81.46;99037.88;5019933;28;20044;-63
2022/02/06 09:08:03;;;;;;;4.72;2.97;;;;;;;5.62;81.35;99031.00;5020440;28;20126;-64
2022/02/06 09:10:54;;;;;;;3.90;2.47;;;;;;;5.64;81.71;99031.91;5035135;28;20099;-64
2022/02/06 09:13:44;;;;;;;2.88;2.38;;;;;;;5.64;81.25;99029.34;5019813;28;20400;-64
2022/02/06 09:16:31;;;;;;;2.70;2.50;;;;;;;5.63;81.62;99023.31;5034008;28;20131;-63
2022/02/06 09:19:16;;;;;;;3.38;2.70;;;;;;;5.65;81.84;99018.22;5034755;28;20083;-64
2022/02/06 09:22:00;;;;;;;3.50;2.60;;;;;;;5.64;81.22;99011.34;5034605;28;20087;-63
2022/02/06 09:24:45;;;;;;;6.32;3.08;;;;;;;5.64;82.02;99011.34;5034976;28;20125;-63
2022/02/06 09:27:28;;;;;;;2.50;2.22;;;;;;;5.68;81.80;98999.41;5034587;28;20159;-63
2022/02/06 09:30:17;;;;;;;4.55;2.72;;;;;;;5.66;81.98;98985.66;5034602;28;20127;-63
2022/02/06 09:35:45;;;;;;;4.97;2.47;;;;;;;5.67;81.44;98966.81;5034341;28;20416;-63
2022/02/06 09:38:32;;;;;;;4.70;3.10;;;;;;;5.67;81.56;98967.72;5034844;28;20098;-64
2022/02/06 09:41:19;;;;;;;5.28;3.45;;;;;;;5.68;81.63;98953.13;5019726;28;20060;-63
2022/02/06 09:44:08;;;;;;;3.35;2.78;;;;;;;5.68;81.35;98950.56;5019438;28;20044;-64
2022/02/06 09:46:56;;;;;;;4.53;2.72;;;;;;;5.66;81.92;98955.69;5019537;28;20107;-63
2022/02/06 09:49:42;;;;;;;4.00;2.47;;;;;;;5.67;81.95;98928.25;5034534;28;20125;-64
2022/02/06 09:52:28;;;;;;;8.20;2.65;;;;;;;5.69;82.21;98921.44;5019296;28;20053;-64
2022/02/06 09:55:17;;;;;;;5.03;2.95;;;;;;;5.69;82.01;98924.03;5033547;28;20044;-64
2022/02/06 10:01:07;;;;;;;9.27;3.53;;;;;;;5.68;81.82;98910.31;5034465;28;20051;-63
2022/02/06 10:04:03;;;;;;;3.33;2.70;;;;;;;5.71;82.26;98888.94;4994817;28;20052;-63
2022/02/06 10:07:07;;;;;;;5.55;2.75;;;;;;;5.71;81.53;98892.34;4993861;28;20500;-63
2022/02/06 10:10:06;;;;;;;3.17;2.58;;;;;;;5.71;81.76;98874.34;4993952;28;20061;-63
2022/02/06 10:12:53;;;;;;;3.78;2.80;;;;;;;5.70;82.26;98872.63;4994487;28;20077;-64
2022/02/06 10:15:40;;;;;;;4.45;3.00;;;;;;;5.69;81.82;98850.31;4993247;28;20088;-64
2022/02/06 10:18:25;;;;;;;3.70;2.85;;;;;;;5.72;81.87;98844.38;4994543;28;20100;-63
2022/02/06 10:21:19;;;;;;;2.80;2.50;;;;;;;5.72;81.80;98824.66;4993723;28;20108;-63
2022/02/06 10:29:58;;;;;;;2.70;2.05;;;;;;;5.75;81.75;98811.00;4994567;28;20544;-64
2022/02/06 10:32:45;;;;;;;3.00;2.28;;;;;;;5.73;82.43;98795.53;4993923;28;20093;-63
2022/02/06 10:35:44;;;;;;;6.03;2.15;;;;;;;5.75;82.47;98788.72;4993508;28;20054;-64
2022/02/06 10:38:29;;;;;;;3.47;2.83;;;;;;;5.74;82.49;98776.72;4993535;28;20180;-63
2022/02/06 10:41:17;;;;;;;3.85;1.80;;;;;;;5.76;81.76;98779.31;4993243;28;20053;-64
2022/02/06 10:44:06;;;;;;;2.53;2.33;;;;;;;5.77;82.34;98770.75;4994199;28;20414;-63
2022/02/06 10:46:55;;;;;;;3.00;2.72;;;;;;;5.77;82.03;98761.34;4994641;28;20056;-63
2022/02/06 10:49:42;;;;;;;2.53;2.25;;;;;;;5.79;82.35;98761.34;4994422;28;20093;-64
2022/02/06 10:52:26;;;;;;;2.60;2.38;;;;;;;5.78;82.34;98747.63;4993075;28;20061;-64
2022/02/06 10:55:13;;;;;;;3.08;2.28;;;;;;;5.78;82.25;98755.34;4994834;28;20108;-64
2022/02/06 10:57:59;;;;;;;2.97;2.63;;;;;;;5.77;82.36;98720.19;4993096;28;20046;-63
2022/02/06 11:00:44;;;;;;;3.25;2.15;;;;;;;5.80;82.39;98696.22;4994084;28;20053;-63
2022/02/06 11:03:32;;;;;;;3.15;2.85;;;;;;;5.81;82.64;98705.66;5031364;28;20060;-64
2022/02/06 11:06:41;;;;;;;3.13;2.50;;;;;;;5.79;82.37;98685.09;5033242;28;20124;-63
2022/02/06 11:09:01;;;;;;;3.13;2.35;;;;;;;5.82;82.31;98666.25;5111451;27;20434;-64
2022/02/06 11:11:47;;;;;;;3.22;3.03;;;;;;;5.81;82.27;98663.69;5111629;28;20124;-64
2022/02/06 11:14:45;;;;;;;5.18;2.63;;;;;;;5.84;82.51;98649.16;5111201;28;20526;-65
2022/02/06 11:17:32;;;;;;;3.00;2.70;;;;;;;5.83;82.15;98669.72;5111262;28;20470;-63
2022/02/06 11:20:16;;;;;;;2.50;2.30;;;;;;;5.85;82.16;98637.13;5111730;28;20431;-64
2022/02/06 11:23:03;;;;;;;4.50;2.40;;;;;;;5.84;82.10;98630.31;5111518;28;20407;-64
2022/02/06 11:25:49;;;;;;;2.10;1.90;;;;;;;5.84;82.30;98641.44;5110272;28;20065;-63
2022/02/06 11:28:37;;;;;;;3.63;2.97;;;;;;;5.86;82.49;98623.44;5110969;28;20070;-64
2022/02/06 11:31:22;;;;;;;2.22;2.13;;;;;;;5.86;82.73;98616.59;5110360;28;20529;-64
2022/02/06 11:34:12;;;;;;;2.95;2.58;;;;;;;5.87;82.46;98610.63;5110291;28;20079;-63
2022/02/06 11:46:24;;;;;;;3.50;2.40;;;;;;;5.91;82.57;98593.50;5110893;28;20100;-63
2022/02/06 11:49:13;;;;;;;4.03;2.60;;;;;;;5.92;81.97;98582.38;5110005;28;20043;-64
2022/02/06 11:52:03;;;;;;;2.92;2.55;;;;;;;5.94;82.08;98596.13;5109722;28;20127;-64
2022/02/06 11:54:57;;;;;;;3.17;2.30;;;;;;;5.96;82.33;98594.44;5109665;28;20051;-63
2022/02/06 11:57:46;;;;;;;3.30;2.40;;;;;;;5.97;82.15;98596.16;5110727;28;20050;-63
2022/02/06 12:00:32;;;;;;;8.48;2.65;;;;;;;5.98;82.66;98613.31;5109699;28;20051;-63
2022/02/06 12:03:19;;;;;;;4.05;2.60;;;;;;;5.98;82.14;98595.31;5109604;28;20560;-64
2022/02/06 12:06:06;;;;;;;3.72;2.45;;;;;;;6.00;82.45;98572.22;5110415;28;20468;-63
2022/02/06 12:08:59;;;;;;;2.88;2.33;;;;;;;6.01;82.65;98584.22;5110108;28;20093;-63
2022/02/06 12:12:04;;;;;;;5.38;2.45;;;;;;;6.03;82.59;98564.53;5110137;28;20078;-64
2022/02/06 12:15:20;;;;;;;2.63;2.10;;;;;;;6.05;82.76;98570.56;5108389;28;20050;-64
2022/02/06 12:18:12;;;;;;;3.25;2.13;;;;;;;6.06;82.89;98569.72;5109990;28;20512;-64
2022/02/06 12:20:57;;;;;;;3.92;2.00;;;;;;;6.05;83.04;98548.25;5095739;28;20055;-64
2022/02/06 12:23:54;;;;;;;2.63;2.40;;;;;;;6.09;82.46;98569.72;5096601;28;20047;-64
2022/02/06 12:26:46;;;;;;;3.55;2.60;;;;;;;6.11;82.63;98568.03;5095655;28;20463;-64
2022/02/06 12:29:39;;;;;;;2.85;2.63;;;;;;;6.13;83.01;98579.22;5096197;28;20142;-64
2022/02/06 12:32:36;;;;;;;8.73;2.53;;;;;;;6.13;82.55;98604.94;5095468;28;20059;-63
2022/02/06 12:38:19;;;;;;;5.75;2.80;;;;;;;6.12;83.24;98625.50;5096320;28;20506;-64
2022/02/06 12:41:27;;;;;;;7.72;3.13;;;;;;;6.07;83.40;98625.47;5096250;28;20083;-63
2022/02/06 12:44:16;;;;;;;5.07;2.30;;;;;;;6.03;83.39;98613.41;5095231;28;20125;-64
2022/02/06 12:47:04;;;;;;;8.95;3.20;;;;;;;6.01;82.92;98622.81;5095383;28;20062;-64
2022/02/06 12:49:56;;;;;;;5.38;2.30;;;;;;;5.99;82.66;98601.31;5095243;28;20540;-63
2022/02/06 12:52:53;;;;;;;6.03;2.38;;;;;;;5.96;83.03;98589.28;5094936;28;20096;-63
2022/02/06 12:55:47;;;;;;;6.45;2.70;;;;;;;5.93;82.68;98599.53;5095792;28;20051;-64
2022/02/06 12:58:31;;;;;;;3.40;2.80;;;;;;;5.89;82.98;98615.78;5096324;28;20130;-65
2022/02/06 13:01:41;;;;;;;4.93;2.75;;;;;;;5.88;83.20;98616.63;5095691;28;20042;-64
2022/02/06 13:04:39;;;;;;;9.25;2.88;;;;;;;5.87;83.04;98620.03;5095869;28;20089;-64
2022/02/06 13:07:30;;;;;;;9.77;2.35;;;;;;;5.88;82.85;98611.47;5094664;28;20051;-65
2022/02/06 13:10:21;;;;;;;4.80;2.20;;;;;;;5.90;83.06;98607.22;5094600;28;20556;-64
2022/02/06 13:13:10;;;;;;;5.47;2.40;;;;;;;5.90;83.43;98620.94;5095446;28;20062;-64
2022/02/06 13:16:14;;;;;;;4.07;2.00;;;;;;;5.93;83.05;98645.81;5094406;28;20043;-64
2022/02/06 13:22:37;;;;;;;5.45;2.60;;;;;;;5.95;83.18;98669.88;5095436;28;20450;-64
2022/02/06 13:34:47;;;;;;;2.75;2.30;;;;;;;5.85;82.68;98681.72;5152311;27;20566;-63
2022/02/06 13:37:41;;;;;;;8.88;2.78;;;;;;;5.83;82.91;98706.56;5152769;27;20115;-63
2022/02/06 13:40:31;;;;;;;5.43;2.83;;;;;;;5.80;83.04;98693.66;5136917;27;20042;-63
2022/02/06 13:43:25;;;;;;;5.60;2.75;;;;;;;5.76;83.06;98685.03;5152374;27;20053;-63
2022/02/06 13:46:21;;;;;;;4.85;2.65;;;;;;;5.73;83.17;98695.28;5136720;27;20042;-64
2022/02/06 13:49:08;;;;;;;4.00;2.63;;;;;;;5.70;82.91;98684.94;5136469;27;20122;-63
2022/02/06 13:52:07;;;;;;;9.05;2.80;;;;;;;5.70;83.11;98676.38;5152299;27;20062;-63
2022/02/06 13:54:53;;;;;;;4.47;2.40;;;;;;;5.68;83.00;98660.06;5136742;27;20123;-63
2022/02/06 13:57:40;;;;;;;6.88;2.30;;;;;;;5.67;83.26;98669.50;5152213;27;20404;-64
2022/02/06 14:00:27;;;;;;;3.17;2.30;;;;;;;5.66;82.79;98660.06;5136834;27;20496;-64
2022/02/06 14:03:13;;;;;;;2.78;2.55;;;;;;;5.66;83.04;98661.75;5152158;27;20504;-64
2022/02/06 14:05:57;;;;;;;3.55;2.80;;;;;;;5.67;83.17;98659.22;5152133;27;20153;-63
2022/02/06 14:09:00;;;;;;;6.30;2.92;;;;;;;5.67;82.92;98654.09;5152216;27;20045;-64
2022/02/06 14:11:58;;;;;;;4.38;2.38;;;;;;;5.65;82.92;98653.19;5136487;27;20096;-63
2022/02/06 14:14:48;;;;;;;6.40;2.65;;;;;;;5.67;82.62;98653.19;5136425;27;20046;-64
2022/02/06 14:17:45;;;;;;;2.80;2.25;;;;;;;5.68;83.51;98667.78;5151980;27;20509;-63
2022/02/06 14:20:29;;;;;;;5.07;2.83;;;;;;;5.66;83.65;98665.22;5151684;27;20057;-64
2022/02/06 14:23:18;;;;;;;4.57;2.90;;;;;;;5.68;83.39;98655.81;5151417;27;20528;-64
2022/02/06 14:26:16;;;;;;;2.10;1.90;;;;;;;5.69;83.49;98652.38;5151520;27;20098;-64
2022/02/06 14:29:00;;;;;;;2.63;2.40;;;;;;;5.71;83.51;98658.41;5151395;27;20451;-64
2022/02/06 14:31:47;;;;;;;2.47;2.05;;;;;;;5.71;83.37;98660.97;5151634;27;20046;-64
2022/02/06 14:34:31;;;;;;;3.80;2.55;;;;;;;5.71;83.33;98668.69;5151558;27;20046;-64
2022/02/06 14:37:15;;;;;;;3.28;2.67;;;;;;;5.71;83.10;98676.41;5147895;27;20104;-64
2022/02/06 14:40:14;;;;;;;4.15;2.47;;;;;;;5.73;83.42;98664.44;5137504;27;20115;-63
2022/02/06 14:43:04;;;;;;;2.92;2.67;;;;;;;5.73;83.20;98672.13;5137654;27;20061;-63
2022/02/06 14:45:51;;;;;;;4.35;3.13;;;;;;;5.75;83.33;98669.59;5121846;27;20045;-64
2022/02/06 14:48:36;;;;;;;4.45;3.00;;;;;;;5.75;83.64;98662.75;5137518;27;20054;-64
2022/02/06 14:51:20;;;;;;;7.20;3.05;;;;;;;5.78;83.65;98656.78;5121861;27;20046;-64
2022/02/06 14:54:08;;;;;;;6.60;2.80;;;;;;;5.78;83.27;98654.19;5121375;27;20062;-63
2022/02/06 14:56:52;;;;;;;4.82;2.50;;;;;;;5.77;83.32;98650.78;5121941;27;20558;-64
2022/02/06 14:59:41;;;;;;;;;;;;;;;5.76;83.70;98646.47;5137488;27;20151;-64
2022/02/06 15:02:26;;;;;;;7.47;3.35;;;;;;;5.78;83.46;98642.22;5121579;27;19919;-63
2022/02/06 15:05:09;;;;;;;4.10;2.85;;;;;;;5.79;83.27;98638.81;5137197;27;20452;-63
2022/02/06 15:07:54;;;;;;;2.78;2.33;;;;;;;5.79;83.27;98636.25;5136951;27;20402;-64
2022/02/06 15:10:38;;;;;;;2.97;2.63;;;;;;;5.81;83.49;98632.81;5121836;27;20154;-63
2022/02/06 15:13:24;;;;;;;6.32;2.75;;;;;;;5.79;83.21;98622.50;5121502;27;20050;-64
2022/02/06 15:16:15;;;;;;;5.13;3.17;;;;;;;5.82;82.90;98645.69;5137066;27;20046;-64
2022/02/06 15:19:12;;;;;;;6.30;3.45;;;;;;;5.85;83.29;98673.13;5121231;27;20069;-64
2022/02/06 15:21:57;;;;;;;8.02;3.13;;;;;;;5.85;83.19;98694.59;5136975;27;20054;-63
2022/02/06 15:24:41;;;;;;;4.55;3.13;;;;;;;5.81;83.11;98687.66;5136788;27;20065;-64
2022/02/06 15:27:25;;;;;;;4.47;3.20;;;;;;;5.81;83.05;98695.38;5136855;27;20046;-63
2022/02/06 15:30:10;;;;;;;;;;;;;;;5.76;83.56;98699.63;5121556;27;20398;-63
2022/02/06 15:32:54;;;;;;;5.68;3.35;;;;;;;5.74;83.08;98688.44;5121183;27;19918;-63
2022/02/06 15:35:42;;;;;;;5.28;3.13;;;;;;;5.71;83.34;98683.25;5120486;27;20550;-64
2022/02/06 15:38:31;;;;;;;6.13;3.83;;;;;;;5.70;83.71;98669.53;5136617;27;20103;-64
2022/02/06 15:41:15;;;;;;;9.15;3.75;;;;;;;5.70;83.53;98660.97;5136519;27;20562;-64
2022/02/06 15:43:59;;;;;;;;;;;;;;;5.71;83.17;98660.97;5136737;27;20068;-63
2022/02/06 15:46:43;;;;;;;4.65;3.22;;;;;;;5.72;83.21;98672.13;5149809;27;20010;-64
2022/02/06 15:49:28;;;;;;;6.80;4.28;;;;;;;5.74;83.21;98676.44;5135046;27;20050;-63